Time;durP1;ratioP1;P1;durP2;ratioP2;P2;SDS_P1;SDS_P2;PMS_P1;PMS_P2;Temp;Humidity;BMP_temperature;BMP_pressure;BME280_temperature;BME280_humidity;BME280_pressure;Samples;Min_cycle;Max_cycle;Signal;HPM_P1;HPM_P2
2021/11/03 00:00:54;;;;;;;0.70;0.70;;;;;;;;;;5081520;28;20273;-72
2021/11/03 00:03:20;;;;;;;4.63;4.43;;;;;;;;;;5080795;28;20500;-71
2021/11/03 00:05:47;;;;;;;0.10;0.10;;;;;;;;;;5080700;28;20485;-72
2021/11/03 00:08:13;;;;;;;0.10;0.10;;;;;;;;;;5081697;28;20379;-72
2021/11/03 00:10:41;;;;;;;0.10;0.10;;;;;;;;;;5080812;28;20203;-71
2021/11/03 00:13:07;;;;;;;0.10;0.10;;;;;;;;;;5082786;28;20203;-72
2021/11/03 00:15:34;;;;;;;0.10;0.10;;;;;;;;;;5082221;28;20264;-73
2021/11/03 00:18:01;;;;;;;0.10;0.10;;;;;;;;;;5080695;28;20215;-71
2021/11/03 00:20:28;;;;;;;0.10;0.10;;;;;;;;;;5081306;28;20207;-72
2021/11/03 00:22:54;;;;;;;0.10;0.10;;;;;;;;;;5081578;28;20208;-73
2021/11/03 00:25:21;;;;;;;0.10;0.10;;;;;;;;;;5081558;28;20224;-72
2021/11/03 00:27:47;;;;;;;0.10;0.10;;;;;;;;;;5081455;28;20259;-72
2021/11/03 00:30:13;;;;;;;0.10;0.10;;;;;;;;;;5080771;28;20229;-72
2021/11/03 00:32:39;;;;;;;0.10;0.10;;;;;;;;;;5081095;28;20223;-72
2021/11/03 00:35:07;;;;;;;0.10;0.10;;;;;;;;;;5082018;28;20201;-72
2021/11/03 00:37:34;;;;;;;0.10;0.10;;;;;;;;;;5083005;28;20279;-72
2021/11/03 00:40:00;;;;;;;0.20;0.20;;;;;;;;;;5080999;28;20525;-72
2021/11/03 00:42:26;;;;;;;0.20;0.20;;;;;;;;;;5082139;28;20212;-71
2021/11/03 00:44:52;;;;;;;0.10;0.10;;;;;;;;;;5081092;28;20207;-71
2021/11/03 00:47:19;;;;;;;0.10;0.10;;;;;;;;;;5082815;28;20223;-72
2021/11/03 00:49:45;;;;;;;0.10;0.10;;;;;;;;;;5081635;28;20210;-72
2021/11/03 00:52:12;;;;;;;0.10;0.10;;;;;;;;;;5081321;28;20219;-72
2021/11/03 00:54:39;;;;;;;0.10;0.10;;;;;;;;;;5083558;28;20208;-72
2021/11/03 00:57:05;;;;;;;0.10;0.10;;;;;;;;;;5083224;28;20415;-71
2021/11/03 00:59:31;;;;;;;0.10;0.10;;;;;;;;;;5082275;28;20201;-70
2021/11/03 01:01:58;;;;;;;0.10;0.10;;;;;;;;;;5082433;28;20199;-73
2021/11/03 01:04:24;;;;;;;0.10;0.10;;;;;;;;;;5081171;28;20200;-72
2021/11/03 01:06:51;;;;;;;0.10;0.10;;;;;;;;;;5081257;28;20253;-73
2021/11/03 01:09:18;;;;;;;0.10;0.10;;;;;;;;;;5080358;28;20211;-72
2021/11/03 01:11:44;;;;;;;0.10;0.10;;;;;;;;;;5081095;28;20210;-68
2021/11/03 01:14:11;;;;;;;0.10;0.10;;;;;;;;;;5080902;28;20203;-71
2021/11/03 01:16:37;;;;;;;0.10;0.10;;;;;;;;;;5080008;28;20204;-70
2021/11/03 01:19:05;;;;;;;0.10;0.10;;;;;;;;;;5081471;28;20245;-71
2021/11/03 01:21:32;;;;;;;0.10;0.10;;;;;;;;;;5082085;28;20503;-71
2021/11/03 01:23:58;;;;;;;0.20;0.20;;;;;;;;;;5080079;28;20276;-71
2021/11/03 01:26:26;;;;;;;0.10;0.10;;;;;;;;;;5082082;28;20445;-71
2021/11/03 01:28:52;;;;;;;0.10;0.10;;;;;;;;;;5079244;28;20199;-71
2021/11/03 01:31:19;;;;;;;0.20;0.20;;;;;;;;;;5081631;28;20265;-72
2021/11/03 01:33:45;;;;;;;0.10;0.10;;;;;;;;;;5079996;28;20301;-72
2021/11/03 01:36:12;;;;;;;0.10;0.10;;;;;;;;;;5081635;28;20247;-72
2021/11/03 01:38:38;;;;;;;0.10;0.10;;;;;;;;;;5080782;28;20204;-71
2021/11/03 01:41:05;;;;;;;0.10;0.10;;;;;;;;;;5081008;28;20511;-72
2021/11/03 01:43:37;;;;;;;0.10;0.10;;;;;;;;;;5082003;28;20440;-71
2021/11/03 01:46:21;;;;;;;0.10;0.10;;;;;;;;;;5081955;28;20207;-71
2021/11/03 01:48:47;;;;;;;0.10;0.10;;;;;;;;;;5080139;28;20252;-72
2021/11/03 01:51:17;;;;;;;0.53;0.53;;;;;;;;;;5079752;28;20203;-70
2021/11/03 01:53:43;;;;;;;0.13;0.13;;;;;;;;;;5080923;28;20203;-70
2021/11/03 01:56:10;;;;;;;0.10;0.10;;;;;;;;;;5081022;28;20253;-69
2021/11/03 01:58:42;;;;;;;0.10;0.10;;;;;;;;;;5079594;28;20566;-71
2021/11/03 02:01:08;;;;;;;0.20;0.20;;;;;;;;;;5081726;28;20203;-69
2021/11/03 02:03:35;;;;;;;0.10;0.10;;;;;;;;;;5081892;28;20200;-71
2021/11/03 02:06:04;;;;;;;0.13;0.13;;;;;;;;;;5083363;28;20252;-71
2021/11/03 02:08:32;;;;;;;0.10;0.10;;;;;;;;;;5083005;28;20305;-72
2021/11/03 02:10:58;;;;;;;0.10;0.10;;;;;;;;;;5083164;28;20203;-72
2021/11/03 02:13:25;;;;;;;0.10;0.10;;;;;;;;;;5083303;28;20494;-71
2021/11/03 02:15:52;;;;;;;0.10;0.10;;;;;;;;;;5083339;28;20312;-71
2021/11/03 02:18:20;;;;;;;0.10;0.10;;;;;;;;;;5082894;28;20225;-71
2021/11/03 02:20:48;;;;;;;0.10;0.10;;;;;;;;;;5083250;28;20270;-71
2021/11/03 02:23:17;;;;;;;0.10;0.10;;;;;;;;;;5083257;28;20203;-72
2021/11/03 02:25:47;;;;;;;0.10;0.10;;;;;;;;;;5082867;28;20253;-72
2021/11/03 02:28:13;;;;;;;0.17;0.17;;;;;;;;;;5083097;28;20229;-72
2021/11/03 02:30:40;;;;;;;0.10;0.10;;;;;;;;;;5082943;28;20203;-71
2021/11/03 02:33:08;;;;;;;0.10;0.10;;;;;;;;;;5083123;28;20199;-71
2021/11/03 02:35:35;;;;;;;0.20;0.20;;;;;;;;;;5083138;28;20229;-72
2021/11/03 02:38:02;;;;;;;0.20;0.20;;;;;;;;;;5083091;28;20199;-71
2021/11/03 02:40:47;;;;;;;0.10;0.10;;;;;;;;;;5082830;28;20241;-71
2021/11/03 02:43:16;;;;;;;0.30;0.30;;;;;;;;;;5082688;28;20214;-71
2021/11/03 02:45:45;;;;;;;0.10;0.10;;;;;;;;;;5082629;28;20198;-71
2021/11/03 02:48:12;;;;;;;0.10;0.10;;;;;;;;;;5082884;28;20223;-72
2021/11/03 02:50:51;;;;;;;0.20;0.20;;;;;;;;;;5082723;28;20203;-71
2021/11/03 02:53:17;;;;;;;0.20;0.20;;;;;;;;;;5082903;28;20202;-71
2021/11/03 02:55:44;;;;;;;0.10;0.10;;;;;;;;;;5082773;28;20210;-72
2021/11/03 02:58:11;;;;;;;0.10;0.10;;;;;;;;;;5082920;28;20442;-72
2021/11/03 03:00:37;;;;;;;0.20;0.20;;;;;;;;;;5082896;28;20232;-72
2021/11/03 03:03:04;;;;;;;0.10;0.10;;;;;;;;;;5082715;28;20203;-72
2021/11/03 03:05:30;;;;;;;0.10;0.10;;;;;;;;;;5083076;28;20431;-72
2021/11/03 03:07:56;;;;;;;0.10;0.10;;;;;;;;;;5083002;28;20245;-72
2021/11/03 03:10:22;;;;;;;0.10;0.10;;;;;;;;;;5082731;28;20215;-72
2021/11/03 03:12:51;;;;;;;0.10;0.10;;;;;;;;;;5082777;28;20203;-72
2021/11/03 03:15:18;;;;;;;0.10;0.10;;;;;;;;;;5082583;28;20214;-72
2021/11/03 03:17:44;;;;;;;0.10;0.10;;;;;;;;;;5082781;28;20257;-72
2021/11/03 03:20:11;;;;;;;0.13;0.13;;;;;;;;;;5082316;28;20248;-72
2021/11/03 03:22:37;;;;;;;0.10;0.10;;;;;;;;;;5082781;28;20323;-72
2021/11/03 03:25:03;;;;;;;0.10;0.10;;;;;;;;;;5082210;28;20230;-71
2021/11/03 03:27:30;;;;;;;0.17;0.17;;;;;;;;;;5082649;28;20422;-72
2021/11/03 03:29:56;;;;;;;0.10;0.10;;;;;;;;;;5082567;28;20253;-71
2021/11/03 03:32:24;;;;;;;0.10;0.10;;;;;;;;;;5082570;28;20417;-72
2021/11/03 03:34:50;;;;;;;0.10;0.10;;;;;;;;;;5082607;28;20210;-72
2021/11/03 03:37:16;;;;;;;0.10;0.10;;;;;;;;;;5082520;28;20226;-72
2021/11/03 03:39:43;;;;;;;0.10;0.10;;;;;;;;;;5088924;28;20202;-71
2021/11/03 03:42:10;;;;;;;0.10;0.10;;;;;;;;;;5085382;28;20203;-71
2021/11/03 03:44:37;;;;;;;0.20;0.20;;;;;;;;;;5082035;28;20211;-70
2021/11/03 03:47:04;;;;;;;0.10;0.10;;;;;;;;;;5082383;28;20217;-72
2021/11/03 03:49:32;;;;;;;0.10;0.10;;;;;;;;;;5082474;28;20199;-72
2021/11/03 03:51:58;;;;;;;0.10;0.10;;;;;;;;;;5084024;28;20213;-72
2021/11/03 03:54:25;;;;;;;0.10;0.10;;;;;;;;;;5085630;28;20203;-72
2021/11/03 03:56:51;;;;;;;0.10;0.10;;;;;;;;;;5085913;28;20557;-72
2021/11/03 03:59:17;;;;;;;0.40;0.40;;;;;;;;;;5085846;28;20202;-72
2021/11/03 04:01:44;;;;;;;0.10;0.10;;;;;;;;;;5085904;28;20273;-72
2021/11/03 04:04:11;;;;;;;0.20;0.20;;;;;;;;;;5085872;28;20268;-72
2021/11/03 04:06:38;;;;;;;0.10;0.10;;;;;;;;;;5085622;28;20221;-72
2021/11/03 04:09:05;;;;;;;0.10;0.10;;;;;;;;;;5085667;28;20261;-71
2021/11/03 04:11:31;;;;;;;0.20;0.20;;;;;;;;;;5085714;28;20281;-72
2021/11/03 04:13:57;;;;;;;0.20;0.20;;;;;;;;;;5085343;28;20202;-72
2021/11/03 04:16:23;;;;;;;0.17;0.17;;;;;;;;;;5085609;28;20210;-72
2021/11/03 04:18:50;;;;;;;0.20;0.20;;;;;;;;;;5085505;28;20332;-72
2021/11/03 04:21:16;;;;;;;0.20;0.20;;;;;;;;;;5085327;28;20256;-71
2021/11/03 04:23:44;;;;;;;0.13;0.13;;;;;;;;;;5085476;28;20202;-72
2021/11/03 04:26:17;;;;;;;0.10;0.10;;;;;;;;;;5085271;28;20214;-71
2021/11/03 04:28:44;;;;;;;0.20;0.20;;;;;;;;;;5085340;28;20244;-71
2021/11/03 04:31:10;;;;;;;0.13;0.13;;;;;;;;;;5085064;28;20311;-71
2021/11/03 04:33:36;;;;;;;0.17;0.17;;;;;;;;;;5084891;28;20205;-71
2021/11/03 04:36:02;;;;;;;0.17;0.17;;;;;;;;;;5085186;28;20207;-71
2021/11/03 04:38:28;;;;;;;0.20;0.20;;;;;;;;;;5085021;28;20223;-72
2021/11/03 04:40:56;;;;;;;0.20;0.20;;;;;;;;;;5085087;28;20251;-72
2021/11/03 04:43:22;;;;;;;0.10;0.10;;;;;;;;;;5084794;28;20429;-72
2021/11/03 04:45:48;;;;;;;0.20;0.20;;;;;;;;;;5084879;28;20244;-71
2021/11/03 04:48:15;;;;;;;0.20;0.20;;;;;;;;;;5085131;28;20240;-71
2021/11/03 04:50:41;;;;;;;0.20;0.20;;;;;;;;;;5084873;28;20256;-72
2021/11/03 04:53:07;;;;;;;0.10;0.10;;;;;;;;;;5084940;28;20248;-71
2021/11/03 04:55:33;;;;;;;0.10;0.10;;;;;;;;;;5085008;28;20206;-71
2021/11/03 04:58:01;;;;;;;0.10;0.10;;;;;;;;;;5070592;28;20215;-72
2021/11/03 05:00:30;;;;;;;0.20;0.20;;;;;;;;;;5084658;28;20272;-72
2021/11/03 05:02:56;;;;;;;0.20;0.20;;;;;;;;;;5084273;28;20202;-72
2021/11/03 05:05:23;;;;;;;0.20;0.20;;;;;;;;;;5084147;28;20396;-72
2021/11/03 05:07:49;;;;;;;0.20;0.20;;;;;;;;;;5084244;28;20232;-72
2021/11/03 05:10:16;;;;;;;0.20;0.20;;;;;;;;;;5084379;28;20207;-72
2021/11/03 05:12:42;;;;;;;0.20;0.20;;;;;;;;;;5084208;28;20206;-71
2021/11/03 05:15:10;;;;;;;0.10;0.10;;;;;;;;;;5084479;28;20206;-72
2021/11/03 05:17:36;;;;;;;0.20;0.20;;;;;;;;;;5084293;28;20225;-72
2021/11/03 05:20:03;;;;;;;0.20;0.20;;;;;;;;;;5083965;28;20256;-72
2021/11/03 05:22:29;;;;;;;0.10;0.10;;;;;;;;;;5084348;28;20241;-72
2021/11/03 05:24:56;;;;;;;0.20;0.20;;;;;;;;;;5084206;28;20206;-71
2021/11/03 05:27:22;;;;;;;0.10;0.10;;;;;;;;;;5084217;28;20412;-72
2021/11/03 05:29:49;;;;;;;0.10;0.10;;;;;;;;;;5084314;28;20260;-72
2021/11/03 05:32:16;;;;;;;0.20;0.20;;;;;;;;;;5083637;28;20281;-72
2021/11/03 05:34:43;;;;;;;0.10;0.10;;;;;;;;;;5083790;28;20211;-72
2021/11/03 05:37:10;;;;;;;0.10;0.10;;;;;;;;;;5083964;28;20426;-72
2021/11/03 05:39:37;;;;;;;0.20;0.20;;;;;;;;;;5083671;28;20229;-72
2021/11/03 05:42:03;;;;;;;0.10;0.10;;;;;;;;;;5083931;28;20214;-72
2021/11/03 05:44:29;;;;;;;0.20;0.20;;;;;;;;;;5083514;28;20236;-72
2021/11/03 05:46:57;;;;;;;0.20;0.20;;;;;;;;;;5083680;28;20531;-71
2021/11/03 05:49:25;;;;;;;0.30;0.30;;;;;;;;;;5083532;28;20224;-72
2021/11/03 05:51:52;;;;;;;0.20;0.20;;;;;;;;;;5083824;28;20497;-72
2021/11/03 05:54:18;;;;;;;0.20;0.20;;;;;;;;;;5083395;28;20552;-72
2021/11/03 05:56:46;;;;;;;0.20;0.20;;;;;;;;;;5083400;28;20206;-72
2021/11/03 05:59:12;;;;;;;0.20;0.20;;;;;;;;;;5083047;28;20221;-71
2021/11/03 06:01:39;;;;;;;0.20;0.20;;;;;;;;;;5083441;28;20432;-71
2021/11/03 06:04:05;;;;;;;0.20;0.20;;;;;;;;;;5083350;28;20206;-71
2021/11/03 06:06:33;;;;;;;0.20;0.20;;;;;;;;;;5083184;28;20248;-71
2021/11/03 06:09:00;;;;;;;0.20;0.20;;;;;;;;;;5083126;28;20207;-72
2021/11/03 06:11:28;;;;;;;0.10;0.10;;;;;;;;;;5076904;28;20213;-72
2021/11/03 06:13:54;;;;;;;0.20;0.20;;;;;;;;;;5082476;28;20208;-71
2021/11/03 06:16:21;;;;;;;0.57;0.57;;;;;;;;;;5083006;28;20430;-69
2021/11/03 06:18:47;;;;;;;0.20;0.20;;;;;;;;;;5080880;28;20443;-71
2021/11/03 06:21:13;;;;;;;0.20;0.20;;;;;;;;;;5083023;28;20470;-72
2021/11/03 06:23:41;;;;;;;0.10;0.10;;;;;;;;;;5083062;28;20255;-71
2021/11/03 06:26:07;;;;;;;0.57;0.57;;;;;;;;;;5082705;28;20210;-67
2021/11/03 06:28:34;;;;;;;0.20;0.20;;;;;;;;;;5083312;28;20251;-68
2021/11/03 06:31:00;;;;;;;0.20;0.20;;;;;;;;;;5094879;28;20229;-68
2021/11/03 06:33:26;;;;;;;0.20;0.20;;;;;;;;;;5083870;28;20206;-67
2021/11/03 06:35:54;;;;;;;0.10;0.10;;;;;;;;;;5083121;28;20273;-67
2021/11/03 06:38:20;;;;;;;0.10;0.10;;;;;;;;;;5082692;28;20226;-68
2021/11/03 06:40:48;;;;;;;0.20;0.20;;;;;;;;;;5083149;28;20206;-66
2021/11/03 06:43:14;;;;;;;0.20;0.20;;;;;;;;;;5082611;28;20228;-67
2021/11/03 06:45:41;;;;;;;0.20;0.20;;;;;;;;;;5083063;28;20202;-68
2021/11/03 06:48:08;;;;;;;0.10;0.10;;;;;;;;;;5083099;28;20205;-67
2021/11/03 06:50:35;;;;;;;0.20;0.20;;;;;;;;;;5082894;28;20202;-65
2021/11/03 06:53:02;;;;;;;0.10;0.10;;;;;;;;;;5082656;28;20205;-64
2021/11/03 06:55:29;;;;;;;0.20;0.20;;;;;;;;;;5081114;28;20206;-64
2021/11/03 06:57:57;;;;;;;0.20;0.20;;;;;;;;;;5082259;28;20205;-64
2021/11/03 07:00:27;;;;;;;0.13;0.13;;;;;;;;;;5082332;28;20549;-63
2021/11/03 07:02:53;;;;;;;0.47;0.47;;;;;;;;;;5082260;28;20194;-64
2021/11/03 07:05:20;;;;;;;0.13;0.13;;;;;;;;;;5082755;28;20435;-64
2021/11/03 07:07:46;;;;;;;0.10;0.10;;;;;;;;;;5082549;28;20257;-64
2021/11/03 07:10:13;;;;;;;0.10;0.10;;;;;;;;;;5082621;28;20205;-64
2021/11/03 07:12:39;;;;;;;0.10;0.10;;;;;;;;;;5082242;28;20214;-64
2021/11/03 07:15:07;;;;;;;0.20;0.20;;;;;;;;;;5082540;28;20205;-64
2021/11/03 07:17:33;;;;;;;0.20;0.20;;;;;;;;;;5082667;28;20404;-64
2021/11/03 07:20:00;;;;;;;0.20;0.20;;;;;;;;;;5082125;28;20230;-63
2021/11/03 07:22:26;;;;;;;0.97;0.97;;;;;;;;;;5082635;28;20207;-64
2021/11/03 07:24:53;;;;;;;0.20;0.20;;;;;;;;;;5082617;28;20444;-64
2021/11/03 07:27:20;;;;;;;0.20;0.20;;;;;;;;;;5085203;28;20249;-64
2021/11/03 07:29:46;;;;;;;0.10;0.10;;;;;;;;;;5086375;28;20206;-65
2021/11/03 07:32:14;;;;;;;0.20;0.20;;;;;;;;;;5086153;28;20537;-65
2021/11/03 07:34:40;;;;;;;0.30;0.30;;;;;;;;;;5086169;28;20209;-63
2021/11/03 07:37:07;;;;;;;0.10;0.10;;;;;;;;;;5086103;28;20201;-63
2021/11/03 07:39:33;;;;;;;0.10;0.10;;;;;;;;;;5086110;28;20226;-64
2021/11/03 07:41:59;;;;;;;0.20;0.20;;;;;;;;;;5085887;28;20559;-63
2021/11/03 07:44:25;;;;;;;0.20;0.20;;;;;;;;;;5085771;28;20214;-65
2021/11/03 07:46:52;;;;;;;0.10;0.10;;;;;;;;;;5086261;28;20206;-63
2021/11/03 07:49:20;;;;;;;0.17;0.17;;;;;;;;;;5085946;28;20385;-63
2021/11/03 07:51:46;;;;;;;0.20;0.20;;;;;;;;;;5085879;28;20210;-63
2021/11/03 07:54:12;;;;;;;0.10;0.10;;;;;;;;;;5085692;28;20203;-63
2021/11/03 07:56:40;;;;;;;0.10;0.10;;;;;;;;;;5081145;28;20201;-68
2021/11/03 07:59:07;;;;;;;0.10;0.10;;;;;;;;;;5086667;28;20255;-68
2021/11/03 08:01:34;;;;;;;0.20;0.20;;;;;;;;;;5079280;28;20282;-68
2021/11/03 08:04:00;;;;;;;0.20;0.20;;;;;;;;;;5085589;28;20537;-68
2021/11/03 08:06:28;;;;;;;0.10;0.10;;;;;;;;;;5085657;28;20246;-68
2021/11/03 08:09:02;;;;;;;0.10;0.10;;;;;;;;;;5085556;28;20282;-68
2021/11/03 08:11:30;;;;;;;0.20;0.20;;;;;;;;;;5074243;28;20264;-68
2021/11/03 08:13:56;;;;;;;0.20;0.20;;;;;;;;;;5085689;28;20202;-68
2021/11/03 08:16:23;;;;;;;0.10;0.10;;;;;;;;;;5085340;28;20427;-68
2021/11/03 08:18:49;;;;;;;0.20;0.20;;;;;;;;;;5085306;28;20453;-69
2021/11/03 08:21:16;;;;;;;0.10;0.10;;;;;;;;;;5085425;28;20440;-69
2021/11/03 08:23:44;;;;;;;0.20;0.20;;;;;;;;;;5084927;28;20246;-69
2021/11/03 08:26:11;;;;;;;0.10;0.10;;;;;;;;;;5085311;28;20218;-68
2021/11/03 08:28:37;;;;;;;0.13;0.13;;;;;;;;;;5085311;28;20432;-69
2021/11/03 08:31:04;;;;;;;0.10;0.10;;;;;;;;;;5085084;28;20300;-68
2021/11/03 08:33:32;;;;;;;0.10;0.10;;;;;;;;;;5084969;28;20509;-69
2021/11/03 08:35:59;;;;;;;0.43;0.43;;;;;;;;;;5087704;28;20265;-68
2021/11/03 08:38:26;;;;;;;0.20;0.20;;;;;;;;;;5084095;28;20207;-68
2021/11/03 08:40:54;;;;;;;0.10;0.10;;;;;;;;;;5084822;28;20199;-68
2021/11/03 08:43:23;;;;;;;0.10;0.10;;;;;;;;;;5084483;28;20231;-67
2021/11/03 08:45:49;;;;;;;0.83;0.83;;;;;;;;;;5084631;28;20203;-69
2021/11/03 08:48:15;;;;;;;0.10;0.10;;;;;;;;;;5084587;28;20207;-69
2021/11/03 08:50:42;;;;;;;0.23;0.23;;;;;;;;;;5084669;28;20219;-68
2021/11/03 08:53:09;;;;;;;0.30;0.30;;;;;;;;;;5082952;28;20371;-69
2021/11/03 08:55:35;;;;;;;0.10;0.10;;;;;;;;;;5084711;28;20476;-69
2021/11/03 08:58:05;;;;;;;0.10;0.10;;;;;;;;;;5084388;28;20207;-69
2021/11/03 09:00:32;;;;;;;0.87;0.87;;;;;;;;;;5084395;28;20230;-68
2021/11/03 09:02:59;;;;;;;0.13;0.13;;;;;;;;;;5084448;28;20206;-69
2021/11/03 09:05:27;;;;;;;0.20;0.20;;;;;;;;;;5084525;28;20210;-68
2021/11/03 09:07:54;;;;;;;0.20;0.20;;;;;;;;;;5083755;28;20211;-68
2021/11/03 09:10:21;;;;;;;0.10;0.10;;;;;;;;;;5084079;28;20203;-69
2021/11/03 09:12:48;;;;;;;0.93;0.93;;;;;;;;;;5079982;28;20237;-69
2021/11/03 09:15:17;;;;;;;0.13;0.13;;;;;;;;;;5083861;28;20252;-68
2021/11/03 09:17:44;;;;;;;0.10;0.10;;;;;;;;;;5083930;28;20321;-68
2021/11/03 09:20:11;;;;;;;0.10;0.10;;;;;;;;;;5083677;28;20262;-69
2021/11/03 09:22:38;;;;;;;1.33;1.33;;;;;;;;;;5083907;28;20211;-69
2021/11/03 09:25:05;;;;;;;0.10;0.10;;;;;;;;;;5083661;28;20213;-69
2021/11/03 09:27:32;;;;;;;0.30;0.30;;;;;;;;;;5084127;28;20228;-69
2021/11/03 09:29:58;;;;;;;1.13;1.13;;;;;;;;;;5083966;28;20248;-68
2021/11/03 09:32:29;;;;;;;0.10;0.10;;;;;;;;;;5083958;28;20227;-70
2021/11/03 09:34:58;;;;;;;0.10;0.10;;;;;;;;;;5083690;28;20265;-69
2021/11/03 09:37:24;;;;;;;0.13;0.13;;;;;;;;;;5083681;28;20207;-68
2021/11/03 09:39:51;;;;;;;0.10;0.10;;;;;;;;;;5083317;28;20289;-69
2021/11/03 09:42:18;;;;;;;0.17;0.17;;;;;;;;;;5083679;28;20210;-69
2021/11/03 09:44:45;;;;;;;0.10;0.10;;;;;;;;;;5083185;28;20212;-69
2021/11/03 09:47:17;;;;;;;0.10;0.10;;;;;;;;;;5083351;28;20244;-68
2021/11/03 09:49:49;;;;;;;0.10;0.10;;;;;;;;;;5082859;28;20543;-70
2021/11/03 09:52:17;;;;;;;0.10;0.10;;;;;;;;;;5083270;28;20215;-69
2021/11/03 09:54:47;;;;;;;0.10;0.10;;;;;;;;;;5083768;28;20252;-70
2021/11/03 09:57:18;;;;;;;0.10;0.10;;;;;;;;;;5083321;28;20240;-69
2021/11/03 09:59:49;;;;;;;0.23;0.23;;;;;;;;;;5083233;28;20581;-69
2021/11/03 10:02:21;;;;;;;0.10;0.10;;;;;;;;;;5083360;28;20208;-68
2021/11/03 10:04:52;;;;;;;0.17;0.17;;;;;;;;;;5083183;28;20261;-69
2021/11/03 10:07:26;;;;;;;0.10;0.10;;;;;;;;;;5083380;28;20250;-69
2021/11/03 10:09:52;;;;;;;0.10;0.10;;;;;;;;;;5083255;28;20201;-69
2021/11/03 10:12:19;;;;;;;0.17;0.17;;;;;;;;;;5082893;28;20208;-69
2021/11/03 10:14:46;;;;;;;0.30;0.30;;;;;;;;;;5083071;28;20206;-68
2021/11/03 10:17:17;;;;;;;0.10;0.10;;;;;;;;;;5083149;28;20255;-68
2021/11/03 10:19:43;;;;;;;0.10;0.10;;;;;;;;;;5082326;28;20223;-68
2021/11/03 10:22:25;;;;;;;0.10;0.10;;;;;;;;;;5083178;28;20215;-69
2021/11/03 10:25:02;;;;;;;0.10;0.10;;;;;;;;;;5082761;28;20199;-69
2021/11/03 10:27:29;;;;;;;0.10;0.10;;;;;;;;;;5082985;28;20223;-68
2021/11/03 10:29:57;;;;;;;0.10;0.10;;;;;;;;;;5088768;28;20203;-68
2021/11/03 10:32:28;;;;;;;0.10;0.10;;;;;;;;;;5082811;28;20275;-69
2021/11/03 10:35:02;;;;;;;0.10;0.10;;;;;;;;;;5082699;28;20307;-69
2021/11/03 10:37:36;;;;;;;0.10;0.10;;;;;;;;;;5076481;28;20203;-69
2021/11/03 10:40:07;;;;;;;0.40;0.40;;;;;;;;;;5076605;28;20253;-69
2021/11/03 10:42:35;;;;;;;0.10;0.10;;;;;;;;;;5082558;28;20210;-69
2021/11/03 10:45:11;;;;;;;0.10;0.10;;;;;;;;;;5082421;28;20268;-69
2021/11/03 10:47:37;;;;;;;0.10;0.10;;;;;;;;;;5083112;28;20383;-69
2021/11/03 10:50:23;;;;;;;0.10;0.10;;;;;;;;;;5082855;28;20245;-70
2021/11/03 10:52:52;;;;;;;0.10;0.10;;;;;;;;;;5076356;28;20218;-70
2021/11/03 10:55:23;;;;;;;0.10;0.10;;;;;;;;;;5082694;28;20252;-68
2021/11/03 10:57:55;;;;;;;0.10;0.10;;;;;;;;;;5075713;28;20211;-69
2021/11/03 11:00:23;;;;;;;0.10;0.10;;;;;;;;;;5070022;28;20265;-69
2021/11/03 11:02:52;;;;;;;0.10;0.10;;;;;;;;;;5086914;28;20274;-69
2021/11/03 11:05:20;;;;;;;0.10;0.10;;;;;;;;;;5086911;28;20207;-69
2021/11/03 11:07:50;;;;;;;0.10;0.10;;;;;;;;;;5086732;28;20361;-69
2021/11/03 11:10:20;;;;;;;0.10;0.10;;;;;;;;;;5086653;28;20202;-69
2021/11/03 11:12:48;;;;;;;1.37;1.37;;;;;;;;;;5086738;28;20254;-69
2021/11/03 11:15:20;;;;;;;0.10;0.10;;;;;;;;;;5086554;28;20565;-69
2021/11/03 11:17:49;;;;;;;0.10;0.10;;;;;;;;;;5086716;28;20250;-69
2021/11/03 11:20:18;;;;;;;0.10;0.10;;;;;;;;;;5086411;28;20290;-69
2021/11/03 11:22:54;;;;;;;0.67;0.67;;;;;;;;;;5086655;28;20406;-68
2021/11/03 11:25:23;;;;;;;0.10;0.10;;;;;;;;;;5086473;28;20364;-68
2021/11/03 11:27:58;;;;;;;0.10;0.10;;;;;;;;;;5086325;28;20207;-69
2021/11/03 11:30:25;;;;;;;0.10;0.10;;;;;;;;;;5086324;28;20232;-69
2021/11/03 11:32:56;;;;;;;0.10;0.10;;;;;;;;;;5086036;28;20220;-69
2021/11/03 11:35:24;;;;;;;0.10;0.10;;;;;;;;;;5086258;28;20199;-68
2021/11/03 11:37:59;;;;;;;0.10;0.10;;;;;;;;;;5086216;28;20199;-69
2021/11/03 11:40:35;;;;;;;0.10;0.10;;;;;;;;;;5085791;28;20286;-69
2021/11/03 11:43:05;;;;;;;0.10;0.10;;;;;;;;;;5086065;28;20202;-70
2021/11/03 11:45:33;;;;;;;0.10;0.10;;;;;;;;;;5086056;28;20199;-69
2021/11/03 11:48:00;;;;;;;0.10;0.10;;;;;;;;;;5086118;28;20213;-69
2021/11/03 11:50:29;;;;;;;0.10;0.10;;;;;;;;;;5085826;28;20497;-69
2021/11/03 11:52:59;;;;;;;0.10;0.10;;;;;;;;;;5085915;28;20375;-69
2021/11/03 11:55:26;;;;;;;0.10;0.10;;;;;;;;;;5085384;28;20225;-69
2021/11/03 11:58:11;;;;;;;0.10;0.10;;;;;;;;;;5085781;28;20201;-70
2021/11/03 12:00:40;;;;;;;0.10;0.10;;;;;;;;;;5085263;28;20419;-69
2021/11/03 12:03:18;;;;;;;0.10;0.10;;;;;;;;;;5085490;28;20415;-69
2021/11/03 12:05:49;;;;;;;0.10;0.10;;;;;;;;;;5085710;28;20213;-68
2021/11/03 12:08:19;;;;;;;0.10;0.10;;;;;;;;;;5085688;28;20451;-68
2021/11/03 12:11:01;;;;;;;0.10;0.10;;;;;;;;;;5085602;28;20416;-69
2021/11/03 12:13:30;;;;;;;0.10;0.10;;;;;;;;;;5086194;28;20207;-69
2021/11/03 12:16:19;;;;;;;0.10;0.10;;;;;;;;;;5085254;28;20441;-68
2021/11/03 12:18:48;;;;;;;0.10;0.10;;;;;;;;;;5099224;28;20202;-69
2021/11/03 12:21:15;;;;;;;0.10;0.10;;;;;;;;;;5085349;28;20224;-69
2021/11/03 12:23:48;;;;;;;0.10;0.10;;;;;;;;;;5085038;28;20200;-70
2021/11/03 12:26:38;;;;;;;0.10;0.10;;;;;;;;;;5085312;28;20204;-69
2021/11/03 12:29:19;;;;;;;0.10;0.10;;;;;;;;;;5085422;28;20200;-70
2021/11/03 12:31:59;;;;;;;0.10;0.10;;;;;;;;;;5084785;28;20578;-68
2021/11/03 12:34:27;;;;;;;0.10;0.10;;;;;;;;;;5084948;28;20273;-68
2021/11/03 12:36:55;;;;;;;0.10;0.10;;;;;;;;;;5085112;28;20239;-68
2021/11/03 12:39:48;;;;;;;0.10;0.10;;;;;;;;;;5085139;28;20246;-68
2021/11/03 12:42:20;;;;;;;0.10;0.10;;;;;;;;;;5085065;28;20200;-68
2021/11/03 12:44:48;;;;;;;0.10;0.10;;;;;;;;;;5084694;28;20215;-69
2021/11/03 12:47:18;;;;;;;0.20;0.20;;;;;;;;;;5084454;28;20223;-69
2021/11/03 12:49:44;;;;;;;0.10;0.10;;;;;;;;;;5084729;28;20208;-69
2021/11/03 12:52:12;;;;;;;0.10;0.10;;;;;;;;;;5084699;28;20204;-69
2021/11/03 12:54:38;;;;;;;0.10;0.10;;;;;;;;;;5084421;28;20230;-68
2021/11/03 12:57:06;;;;;;;0.10;0.10;;;;;;;;;;5084513;28;20220;-69
2021/11/03 12:59:33;;;;;;;0.10;0.10;;;;;;;;;;5084694;28;20239;-69
2021/11/03 13:02:01;;;;;;;0.23;0.23;;;;;;;;;;5084282;28;20230;-68
2021/11/03 13:04:30;;;;;;;1.43;1.40;;;;;;;;;;5084589;28;20199;-68
2021/11/03 13:06:58;;;;;;;0.10;0.10;;;;;;;;;;5084533;28;20463;-68
2021/11/03 13:09:29;;;;;;;0.10;0.10;;;;;;;;;;5084464;28;20423;-68
2021/11/03 13:11:55;;;;;;;0.10;0.10;;;;;;;;;;5084012;28;20210;-68
2021/11/03 13:14:24;;;;;;;0.10;0.10;;;;;;;;;;5084311;28;20204;-68
2021/11/03 13:16:51;;;;;;;0.10;0.10;;;;;;;;;;5084292;28;20437;-69
2021/11/03 13:19:19;;;;;;;0.10;0.10;;;;;;;;;;5084346;28;20253;-68
2021/11/03 13:21:47;;;;;;;0.10;0.10;;;;;;;;;;5084089;28;20412;-69
2021/11/03 13:24:16;;;;;;;0.10;0.10;;;;;;;;;;5083287;28;20210;-69
2021/11/03 13:26:43;;;;;;;2.03;2.03;;;;;;;;;;5084159;28;20231;-69
2021/11/03 13:29:21;;;;;;;0.10;0.10;;;;;;;;;;5084086;28;20273;-69
2021/11/03 13:32:02;;;;;;;0.10;0.10;;;;;;;;;;5083885;28;20223;-62
2021/11/03 13:34:29;;;;;;;0.10;0.10;;;;;;;;;;5084010;28;20524;-63
2021/11/03 13:36:58;;;;;;;0.10;0.10;;;;;;;;;;5083718;28;20247;-62
2021/11/03 13:39:26;;;;;;;0.10;0.10;;;;;;;;;;5083452;28;20257;-62
2021/11/03 13:41:53;;;;;;;0.10;0.10;;;;;;;;;;5083613;28;20377;-63
2021/11/03 13:44:20;;;;;;;0.10;0.10;;;;;;;;;;5083262;28;20418;-62
2021/11/03 13:46:51;;;;;;;0.10;0.10;;;;;;;;;;5083644;28;20262;-62
2021/11/03 13:49:19;;;;;;;0.10;0.10;;;;;;;;;;5083646;28;20199;-62
2021/11/03 13:51:48;;;;;;;0.10;0.10;;;;;;;;;;5083581;28;20241;-62
2021/11/03 13:54:21;;;;;;;0.10;0.10;;;;;;;;;;5083573;28;20249;-62
2021/11/03 13:56:49;;;;;;;0.10;0.10;;;;;;;;;;5083371;28;20207;-62
2021/11/03 13:59:26;;;;;;;0.10;0.10;;;;;;;;;;5083534;28;20305;-61
2021/11/03 14:01:55;;;;;;;0.10;0.10;;;;;;;;;;5083321;28;20223;-63
2021/11/03 14:04:22;;;;;;;0.10;0.10;;;;;;;;;;5081175;28;20373;-62
2021/11/03 14:07:16;;;;;;;0.10;0.10;;;;;;;;;;5083428;28;20203;-62
2021/11/03 14:09:44;;;;;;;0.10;0.10;;;;;;;;;;5047285;28;20211;-62
2021/11/03 14:12:10;;;;;;;0.10;0.10;;;;;;;;;;5083281;28;20343;-63
2021/11/03 14:14:37;;;;;;;0.10;0.10;;;;;;;;;;5082768;28;20260;-62
2021/11/03 14:17:06;;;;;;;0.10;0.10;;;;;;;;;;5083338;28;20204;-63
2021/11/03 14:19:34;;;;;;;0.10;0.10;;;;;;;;;;5083041;28;20227;-62
2021/11/03 14:22:03;;;;;;;0.10;0.10;;;;;;;;;;5083007;28;20225;-62
2021/11/03 14:24:30;;;;;;;0.10;0.10;;;;;;;;;;5079960;28;20203;-62
2021/11/03 14:26:58;;;;;;;0.10;0.10;;;;;;;;;;5083045;28;20245;-63
2021/11/03 14:29:24;;;;;;;0.10;0.10;;;;;;;;;;5083006;28;20234;-63
2021/11/03 14:31:51;;;;;;;0.10;0.10;;;;;;;;;;5082822;28;20531;-62
2021/11/03 14:34:20;;;;;;;0.10;0.10;;;;;;;;;;5082821;28;20203;-61
2021/11/03 14:36:46;;;;;;;0.10;0.10;;;;;;;;;;5082272;28;20209;-61
2021/11/03 14:39:17;;;;;;;0.10;0.10;;;;;;;;;;5082955;28;20394;-62
2021/11/03 14:41:44;;;;;;;0.10;0.10;;;;;;;;;;5083028;28;20231;-62
2021/11/03 14:44:12;;;;;;;0.10;0.10;;;;;;;;;;5082479;28;20218;-62
2021/11/03 14:46:41;;;;;;;0.10;0.10;;;;;;;;;;5082779;28;20235;-61
2021/11/03 14:49:16;;;;;;;0.10;0.10;;;;;;;;;;5082517;28;20274;-62